Mayport Ns (Adm David L. Mcdonald Field) Airport
KNRB : now visible

Airfield :











YOU CAN JOIN US ON...

 
LOGIN :

Register | Disclaimer

   EN    FR    IT 

 









Legend :    VFR   Marginal VFR   IFR   Intensive IFR   Very Intensive IFR
Visi :
Ceiling :
>= 8 km
>= 3000ft
5 to 8 km
1000 to 3000 ft
1500m to 5 km
500 to 1000 ft
800 to 1500m
200 to 500 ft
< 800m
< 200 ft
Symbols :   Thunderstorms  Fog  Heavy snow  Heavy precipitations  Wind > 20 kt






- Airport Elevation : 15 ft


KNRB - Mayport Ns (Adm David L. Mcdonald Field)

CURRENT METAR :
  • 230952Z AUTO 01009KT 10SM CLR 12/08 A3027 RMK AO2 SLP250 T01170078 PWINO $

EXPIRED METARs :
  • 230852Z AUTO 35005KT 10SM CLR 11/08 A3027 RMK AO2 SLP250 T01110078 55010 PWINO $
  • 230752Z AUTO 02012KT 10SM CLR 12/09 A3027 RMK AO2 SLP249 T01220089 PWINO $

TAF TAF KNRB
Valid from the 23 at 07:00 until the 24 at 07:00 UTC


2307/2407 02010KT 9999 SKC QNH3020INS
FM231500 05005KT 9999 FEW035 SCT250 QNH3008INS
FM231900 07005KT 9999 FEW035 SCT250 QNH3005INS
FM240100 07005KT 9999 SCT035 BKN250 QNH3001INS AUTOMATED SENSOR 2307 TIL 2410 T09/2311Z T20/2320Z FN00085



MET'MAP, your aeronautical weather chart ! - Copyright ORBIFLY December 2007 - Disclaimer

ORBIFLY MET'MAP TEAM :

Programming & Development : Alexandra Zaïnal
Concept & original design : Baudouin d'Aumeries
Assistance for programming : Marc-Olivier Méhu
Technical & hardware support : Manuel Goepfert

Contact : metmap@orbifly.com




SOURCES & CREDITS :

   NOAA       Earth
Advisory